sensor_id;sensor_type;location;lat;lon;timestamp;temperature;humidity
58809;DHT22;44579;51.672;7.834;2023-10-31T00:01:19;13.80;91.70
58809;DHT22;44579;51.672;7.834;2023-10-31T00:03:46;13.80;91.70
58809;DHT22;44579;51.672;7.834;2023-10-31T00:06:14;13.80;92.10
58809;DHT22;44579;51.672;7.834;2023-10-31T00:08:40;13.80;91.70
58809;DHT22;44579;51.672;7.834;2023-10-31T00:11:11;13.80;91.70
58809;DHT22;44579;51.672;7.834;2023-10-31T00:13:39;13.80;91.70
58809;DHT22;44579;51.672;7.834;2023-10-31T00:16:06;13.80;91.70
58809;DHT22;44579;51.672;7.834;2023-10-31T00:18:34;13.80;91.70
58809;DHT22;44579;51.672;7.834;2023-10-31T00:21:01;13.80;91.70
58809;DHT22;44579;51.672;7.834;2023-10-31T00:23:28;13.80;91.80
58809;DHT22;44579;51.672;7.834;2023-10-31T00:25:55;13.70;91.80
58809;DHT22;44579;51.672;7.834;2023-10-31T00:28:22;13.80;91.80
58809;DHT22;44579;51.672;7.834;2023-10-31T00:30:49;13.80;91.90
58809;DHT22;44579;51.672;7.834;2023-10-31T00:33:16;13.70;91.90
58809;DHT22;44579;51.672;7.834;2023-10-31T00:35:42;13.70;91.90
58809;DHT22;44579;51.672;7.834;2023-10-31T00:38:09;13.60;92.00
58809;DHT22;44579;51.672;7.834;2023-10-31T00:40:37;13.70;92.00
58809;DHT22;44579;51.672;7.834;2023-10-31T00:43:04;13.70;92.10
58809;DHT22;44579;51.672;7.834;2023-10-31T00:45:31;13.70;92.10
58809;DHT22;44579;51.672;7.834;2023-10-31T00:47:57;13.70;92.10
58809;DHT22;44579;51.672;7.834;2023-10-31T00:50:26;13.60;92.10
58809;DHT22;44579;51.672;7.834;2023-10-31T00:52:53;13.60;92.10
58809;DHT22;44579;51.672;7.834;2023-10-31T00:55:20;13.50;92.20
58809;DHT22;44579;51.672;7.834;2023-10-31T00:57:47;13.50;92.20
58809;DHT22;44579;51.672;7.834;2023-10-31T01:00:14;13.50;92.30
58809;DHT22;44579;51.672;7.834;2023-10-31T01:02:41;13.40;92.30
58809;DHT22;44579;51.672;7.834;2023-10-31T01:05:08;13.30;92.40
58809;DHT22;44579;51.672;7.834;2023-10-31T01:07:35;13.30;92.40
58809;DHT22;44579;51.672;7.834;2023-10-31T01:10:02;13.20;92.40
58809;DHT22;44579;51.672;7.834;2023-10-31T01:12:30;13.20;92.40
58809;DHT22;44579;51.672;7.834;2023-10-31T01:14:57;13.00;92.40
58809;DHT22;44579;51.672;7.834;2023-10-31T01:17:24;13.00;92.50
58809;DHT22;44579;51.672;7.834;2023-10-31T01:19:51;12.90;92.40
58809;DHT22;44579;51.672;7.834;2023-10-31T01:22:18;12.80;92.40
58809;DHT22;44579;51.672;7.834;2023-10-31T01:24:44;12.80;92.40
58809;DHT22;44579;51.672;7.834;2023-10-31T01:27:11;12.70;92.30
58809;DHT22;44579;51.672;7.834;2023-10-31T01:29:38;12.70;92.30
58809;DHT22;44579;51.672;7.834;2023-10-31T01:32:05;12.60;92.20
58809;DHT22;44579;51.672;7.834;2023-10-31T01:34:42;12.60;92.30
58809;DHT22;44579;51.672;7.834;2023-10-31T01:37:09;12.60;92.30
58809;DHT22;44579;51.672;7.834;2023-10-31T01:39:36;12.60;92.20
58809;DHT22;44579;51.672;7.834;2023-10-31T01:42:03;12.60;92.20
58809;DHT22;44579;51.672;7.834;2023-10-31T01:44:34;12.60;92.10
58809;DHT22;44579;51.672;7.834;2023-10-31T01:47:01;12.60;92.20
58809;DHT22;44579;51.672;7.834;2023-10-31T01:49:28;12.50;92.10
58809;DHT22;44579;51.672;7.834;2023-10-31T01:51:56;12.50;92.10
58809;DHT22;44579;51.672;7.834;2023-10-31T01:54:23;12.50;92.60
58809;DHT22;44579;51.672;7.834;2023-10-31T01:56:49;12.40;92.10
58809;DHT22;44579;51.672;7.834;2023-10-31T01:59:20;12.50;92.10
58809;DHT22;44579;51.672;7.834;2023-10-31T02:01:47;12.50;92.10
58809;DHT22;44579;51.672;7.834;2023-10-31T02:04:15;12.40;92.00
58809;DHT22;44579;51.672;7.834;2023-10-31T02:06:42;12.40;92.00
58809;DHT22;44579;51.672;7.834;2023-10-31T02:09:09;12.40;92.00
58809;DHT22;44579;51.672;7.834;2023-10-31T02:11:36;12.40;92.10
58809;DHT22;44579;51.672;7.834;2023-10-31T02:14:02;12.40;92.00
58809;DHT22;44579;51.672;7.834;2023-10-31T02:16:29;12.30;92.00
58809;DHT22;44579;51.672;7.834;2023-10-31T02:18:56;12.30;92.10
58809;DHT22;44579;51.672;7.834;2023-10-31T02:21:23;12.30;92.10
58809;DHT22;44579;51.672;7.834;2023-10-31T02:23:55;12.20;92.10
58809;DHT22;44579;51.672;7.834;2023-10-31T02:26:22;12.20;92.20
58809;DHT22;44579;51.672;7.834;2023-10-31T02:28:49;12.20;92.10
58809;DHT22;44579;51.672;7.834;2023-10-31T02:31:17;12.20;92.10
58809;DHT22;44579;51.672;7.834;2023-10-31T02:33:44;12.20;92.10
58809;DHT22;44579;51.672;7.834;2023-10-31T02:36:12;12.20;92.10
58809;DHT22;44579;51.672;7.834;2023-10-31T02:38:39;12.10;92.10
58809;DHT22;44579;51.672;7.834;2023-10-31T02:41:06;12.10;92.10
58809;DHT22;44579;51.672;7.834;2023-10-31T02:43:33;12.00;92.10
58809;DHT22;44579;51.672;7.834;2023-10-31T02:46:01;12.00;92.10
58809;DHT22;44579;51.672;7.834;2023-10-31T02:48:28;11.90;92.10
58809;DHT22;44579;51.672;7.834;2023-10-31T02:50:55;11.90;92.20
58809;DHT22;44579;51.672;7.834;2023-10-31T02:53:22;11.80;92.10
58809;DHT22;44579;51.672;7.834;2023-10-31T02:55:49;11.80;92.20
58809;DHT22;44579;51.672;7.834;2023-10-31T02:58:16;11.90;92.20
58809;DHT22;44579;51.672;7.834;2023-10-31T03:00:44;11.80;92.20
58809;DHT22;44579;51.672;7.834;2023-10-31T03:03:10;11.80;92.20
58809;DHT22;44579;51.672;7.834;2023-10-31T03:05:37;11.80;92.20
58809;DHT22;44579;51.672;7.834;2023-10-31T03:08:05;11.80;92.10
58809;DHT22;44579;51.672;7.834;2023-10-31T03:10:35;11.80;92.10
58809;DHT22;44579;51.672;7.834;2023-10-31T03:13:02;11.80;92.10
58809;DHT22;44579;51.672;7.834;2023-10-31T03:15:29;11.80;92.10
58809;DHT22;44579;51.672;7.834;2023-10-31T03:17:57;11.80;92.10
58809;DHT22;44579;51.672;7.834;2023-10-31T03:20:24;11.80;92.10
58809;DHT22;44579;51.672;7.834;2023-10-31T03:22:51;11.80;92.00
58809;DHT22;44579;51.672;7.834;2023-10-31T03:25:18;11.80;92.00
58809;DHT22;44579;51.672;7.834;2023-10-31T03:27:45;11.80;91.90
58809;DHT22;44579;51.672;7.834;2023-10-31T03:30:13;11.80;91.90
58809;DHT22;44579;51.672;7.834;2023-10-31T03:32:39;11.80;91.90
58809;DHT22;44579;51.672;7.834;2023-10-31T03:35:06;11.80;91.90
58809;DHT22;44579;51.672;7.834;2023-10-31T03:37:33;11.80;92.00
58809;DHT22;44579;51.672;7.834;2023-10-31T03:40:01;11.80;92.00
58809;DHT22;44579;51.672;7.834;2023-10-31T03:42:28;11.80;91.90
58809;DHT22;44579;51.672;7.834;2023-10-31T03:44:56;11.80;91.90
58809;DHT22;44579;51.672;7.834;2023-10-31T03:47:22;11.70;91.90
58809;DHT22;44579;51.672;7.834;2023-10-31T03:49:50;11.70;91.90
58809;DHT22;44579;51.672;7.834;2023-10-31T03:52:17;11.70;92.00
58809;DHT22;44579;51.672;7.834;2023-10-31T03:54:44;11.70;92.00
58809;DHT22;44579;51.672;7.834;2023-10-31T03:57:11;11.70;92.00
58809;DHT22;44579;51.672;7.834;2023-10-31T03:59:38;11.70;92.00
58809;DHT22;44579;51.672;7.834;2023-10-31T04:02:05;11.70;92.00
58809;DHT22;44579;51.672;7.834;2023-10-31T04:04:32;11.70;92.00
58809;DHT22;44579;51.672;7.834;2023-10-31T04:06:58;11.70;92.00
58809;DHT22;44579;51.672;7.834;2023-10-31T04:09:25;11.70;92.00
58809;DHT22;44579;51.672;7.834;2023-10-31T04:11:52;11.60;92.00
58809;DHT22;44579;51.672;7.834;2023-10-31T04:14:19;11.60;92.10
58809;DHT22;44579;51.672;7.834;2023-10-31T04:16:46;11.60;92.10
58809;DHT22;44579;51.672;7.834;2023-10-31T04:19:13;11.60;92.10
58809;DHT22;44579;51.672;7.834;2023-10-31T04:21:40;11.60;92.10
58809;DHT22;44579;51.672;7.834;2023-10-31T04:24:07;11.70;92.10
58809;DHT22;44579;51.672;7.834;2023-10-31T04:26:34;11.60;92.10
58809;DHT22;44579;51.672;7.834;2023-10-31T04:29:00;11.60;92.10
58809;DHT22;44579;51.672;7.834;2023-10-31T04:31:28;11.60;92.00
58809;DHT22;44579;51.672;7.834;2023-10-31T04:34:07;11.60;92.10
58809;DHT22;44579;51.672;7.834;2023-10-31T04:36:34;11.60;92.10
58809;DHT22;44579;51.672;7.834;2023-10-31T04:39:01;11.50;92.10
58809;DHT22;44579;51.672;7.834;2023-10-31T04:41:28;11.60;92.10
58809;DHT22;44579;51.672;7.834;2023-10-31T04:43:55;11.60;92.10
58809;DHT22;44579;51.672;7.834;2023-10-31T04:46:22;11.70;92.10
58809;DHT22;44579;51.672;7.834;2023-10-31T04:48:49;11.70;92.10
58809;DHT22;44579;51.672;7.834;2023-10-31T04:51:15;11.70;92.00
58809;DHT22;44579;51.672;7.834;2023-10-31T04:53:42;11.70;92.00
58809;DHT22;44579;51.672;7.834;2023-10-31T04:56:12;11.70;92.00
58809;DHT22;44579;51.672;7.834;2023-10-31T04:58:44;11.70;92.00
58809;DHT22;44579;51.672;7.834;2023-10-31T05:01:11;11.70;92.00
58809;DHT22;44579;51.672;7.834;2023-10-31T05:03:38;11.70;92.00
58809;DHT22;44579;51.672;7.834;2023-10-31T05:06:05;11.70;92.00
58809;DHT22;44579;51.672;7.834;2023-10-31T05:08:32;11.70;92.40
58809;DHT22;44579;51.672;7.834;2023-10-31T05:10:59;11.70;92.10
58809;DHT22;44579;51.672;7.834;2023-10-31T05:13:26;11.60;92.10
58809;DHT22;44579;51.672;7.834;2023-10-31T05:15:53;11.70;92.10
58809;DHT22;44579;51.672;7.834;2023-10-31T05:18:20;11.70;92.20
58809;DHT22;44579;51.672;7.834;2023-10-31T05:20:47;11.70;92.20
58809;DHT22;44579;51.672;7.834;2023-10-31T05:23:13;11.70;92.20
58809;DHT22;44579;51.672;7.834;2023-10-31T05:25:40;11.70;92.20
58809;DHT22;44579;51.672;7.834;2023-10-31T05:28:08;11.70;92.20
58809;DHT22;44579;51.672;7.834;2023-10-31T05:30:35;11.60;92.10
58809;DHT22;44579;51.672;7.834;2023-10-31T05:33:11;11.60;92.20
58809;DHT22;44579;51.672;7.834;2023-10-31T05:36:54;11.70;92.20
58809;DHT22;44579;51.672;7.834;2023-10-31T05:39:24;11.60;92.20
58809;DHT22;44579;51.672;7.834;2023-10-31T05:41:54;11.60;92.20
58809;DHT22;44579;51.672;7.834;2023-10-31T05:44:41;11.60;92.20
58809;DHT22;44579;51.672;7.834;2023-10-31T05:47:08;11.60;92.30
58809;DHT22;44579;51.672;7.834;2023-10-31T05:49:35;11.60;92.20
58809;DHT22;44579;51.672;7.834;2023-10-31T05:52:02;11.60;92.20
58809;DHT22;44579;51.672;7.834;2023-10-31T05:54:38;11.60;92.20
58809;DHT22;44579;51.672;7.834;2023-10-31T05:57:05;11.60;92.30
58809;DHT22;44579;51.672;7.834;2023-10-31T05:59:31;11.60;92.30
58809;DHT22;44579;51.672;7.834;2023-10-31T06:01:59;11.60;92.20
58809;DHT22;44579;51.672;7.834;2023-10-31T06:04:26;11.60;92.20
58809;DHT22;44579;51.672;7.834;2023-10-31T06:06:53;11.60;92.30
58809;DHT22;44579;51.672;7.834;2023-10-31T06:09:19;11.60;92.30
58809;DHT22;44579;51.672;7.834;2023-10-31T06:11:47;11.50;92.30
58809;DHT22;44579;51.672;7.834;2023-10-31T06:14:14;11.50;92.40
58809;DHT22;44579;51.672;7.834;2023-10-31T06:16:41;11.50;92.40
58809;DHT22;44579;51.672;7.834;2023-10-31T06:19:08;11.50;92.50
58809;DHT22;44579;51.672;7.834;2023-10-31T06:21:35;11.50;92.50
58809;DHT22;44579;51.672;7.834;2023-10-31T06:24:03;11.50;92.50
58809;DHT22;44579;51.672;7.834;2023-10-31T06:26:30;11.50;92.40
58809;DHT22;44579;51.672;7.834;2023-10-31T06:28:57;11.50;92.40
58809;DHT22;44579;51.672;7.834;2023-10-31T06:31:44;11.50;92.50
58809;DHT22;44579;51.672;7.834;2023-10-31T06:34:11;11.50;92.50
58809;DHT22;44579;51.672;7.834;2023-10-31T06:36:38;11.50;92.50
58809;DHT22;44579;51.672;7.834;2023-10-31T06:39:05;11.50;92.50
58809;DHT22;44579;51.672;7.834;2023-10-31T06:41:32;11.50;92.50
58809;DHT22;44579;51.672;7.834;2023-10-31T06:43:59;11.60;92.50
58809;DHT22;44579;51.672;7.834;2023-10-31T06:46:26;11.60;92.40
58809;DHT22;44579;51.672;7.834;2023-10-31T06:48:53;11.50;92.40
58809;DHT22;44579;51.672;7.834;2023-10-31T06:51:20;11.50;92.50
58809;DHT22;44579;51.672;7.834;2023-10-31T06:53:47;11.50;92.40
58809;DHT22;44579;51.672;7.834;2023-10-31T06:56:14;11.50;92.50
58809;DHT22;44579;51.672;7.834;2023-10-31T06:58:41;11.50;92.50
58809;DHT22;44579;51.672;7.834;2023-10-31T07:01:07;11.50;92.50
58809;DHT22;44579;51.672;7.834;2023-10-31T07:03:36;11.50;92.50
58809;DHT22;44579;51.672;7.834;2023-10-31T07:06:03;11.50;92.60
58809;DHT22;44579;51.672;7.834;2023-10-31T07:08:30;11.50;92.60
58809;DHT22;44579;51.672;7.834;2023-10-31T07:10:57;11.50;92.60
58809;DHT22;44579;51.672;7.834;2023-10-31T07:13:30;11.40;92.60
58809;DHT22;44579;51.672;7.834;2023-10-31T07:15:57;11.40;92.70
58809;DHT22;44579;51.672;7.834;2023-10-31T07:18:24;11.40;92.80
58809;DHT22;44579;51.672;7.834;2023-10-31T07:20:53;11.40;92.80
58809;DHT22;44579;51.672;7.834;2023-10-31T07:23:30;11.40;92.80
58809;DHT22;44579;51.672;7.834;2023-10-31T07:25:57;11.40;92.80
58809;DHT22;44579;51.672;7.834;2023-10-31T07:28:24;11.40;92.80
58809;DHT22;44579;51.672;7.834;2023-10-31T07:30:51;11.40;92.80
58809;DHT22;44579;51.672;7.834;2023-10-31T07:33:18;11.40;92.80
58809;DHT22;44579;51.672;7.834;2023-10-31T07:35:45;11.50;92.90
58809;DHT22;44579;51.672;7.834;2023-10-31T07:38:13;11.60;92.90
58809;DHT22;44579;51.672;7.834;2023-10-31T07:40:41;11.60;92.80
58809;DHT22;44579;51.672;7.834;2023-10-31T07:43:08;11.70;92.80
58809;DHT22;44579;51.672;7.834;2023-10-31T07:45:35;11.80;92.80
58809;DHT22;44579;51.672;7.834;2023-10-31T07:48:02;11.80;92.70
58809;DHT22;44579;51.672;7.834;2023-10-31T07:50:29;11.80;92.70
58809;DHT22;44579;51.672;7.834;2023-10-31T07:52:56;11.90;92.70
58809;DHT22;44579;51.672;7.834;2023-10-31T07:55:23;11.90;92.70
58809;DHT22;44579;51.672;7.834;2023-10-31T07:57:51;12.00;92.70
58809;DHT22;44579;51.672;7.834;2023-10-31T08:00:18;12.00;92.70
58809;DHT22;44579;51.672;7.834;2023-10-31T08:02:48;12.00;92.80
58809;DHT22;44579;51.672;7.834;2023-10-31T08:05:15;12.00;92.80
58809;DHT22;44579;51.672;7.834;2023-10-31T08:07:42;12.00;92.80
58809;DHT22;44579;51.672;7.834;2023-10-31T08:10:09;12.00;92.90
58809;DHT22;44579;51.672;7.834;2023-10-31T08:12:36;12.00;92.90
58809;DHT22;44579;51.672;7.834;2023-10-31T08:15:03;12.00;92.90
58809;DHT22;44579;51.672;7.834;2023-10-31T08:17:30;12.10;93.00
58809;DHT22;44579;51.672;7.834;2023-10-31T08:19:57;12.00;92.90
58809;DHT22;44579;51.672;7.834;2023-10-31T08:22:24;12.10;93.40
58809;DHT22;44579;51.672;7.834;2023-10-31T08:24:53;12.10;93.00
58809;DHT22;44579;51.672;7.834;2023-10-31T08:27:19;12.10;93.00
58809;DHT22;44579;51.672;7.834;2023-10-31T08:29:46;12.20;93.00
58809;DHT22;44579;51.672;7.834;2023-10-31T08:32:13;12.20;93.00
58809;DHT22;44579;51.672;7.834;2023-10-31T08:34:41;12.10;93.10
58809;DHT22;44579;51.672;7.834;2023-10-31T08:37:08;12.20;93.10
58809;DHT22;44579;51.672;7.834;2023-10-31T08:39:35;12.20;93.10
58809;DHT22;44579;51.672;7.834;2023-10-31T08:42:01;12.20;93.10
58809;DHT22;44579;51.672;7.834;2023-10-31T08:44:28;12.20;93.10
58809;DHT22;44579;51.672;7.834;2023-10-31T08:46:55;12.20;93.10
58809;DHT22;44579;51.672;7.834;2023-10-31T08:49:22;12.30;93.20
58809;DHT22;44579;51.672;7.834;2023-10-31T08:51:49;12.30;93.20
58809;DHT22;44579;51.672;7.834;2023-10-31T08:54:16;12.30;93.10
58809;DHT22;44579;51.672;7.834;2023-10-31T08:56:43;12.40;93.10
58809;DHT22;44579;51.672;7.834;2023-10-31T08:59:13;12.40;93.10
58809;DHT22;44579;51.672;7.834;2023-10-31T09:01:40;12.50;93.10
58809;DHT22;44579;51.672;7.834;2023-10-31T09:04:07;12.50;93.20
58809;DHT22;44579;51.672;7.834;2023-10-31T09:06:34;12.50;93.50
58809;DHT22;44579;51.672;7.834;2023-10-31T09:09:01;12.60;93.10
58809;DHT22;44579;51.672;7.834;2023-10-31T09:11:27;12.60;93.10
58809;DHT22;44579;51.672;7.834;2023-10-31T09:13:59;12.60;93.20
58809;DHT22;44579;51.672;7.834;2023-10-31T09:16:33;12.60;93.10
58809;DHT22;44579;51.672;7.834;2023-10-31T09:18:59;12.70;93.20
58809;DHT22;44579;51.672;7.834;2023-10-31T09:21:27;12.70;93.20
58809;DHT22;44579;51.672;7.834;2023-10-31T09:23:54;12.80;93.20
58809;DHT22;44579;51.672;7.834;2023-10-31T09:26:20;12.80;93.30
58809;DHT22;44579;51.672;7.834;2023-10-31T09:28:47;12.70;93.30
58809;DHT22;44579;51.672;7.834;2023-10-31T09:31:17;12.70;93.30
58809;DHT22;44579;51.672;7.834;2023-10-31T09:33:47;12.70;93.30
58809;DHT22;44579;51.672;7.834;2023-10-31T09:36:14;12.70;93.30
58809;DHT22;44579;51.672;7.834;2023-10-31T09:38:42;12.70;93.30
58809;DHT22;44579;51.672;7.834;2023-10-31T09:41:08;12.60;93.20
58809;DHT22;44579;51.672;7.834;2023-10-31T09:43:35;12.60;93.20
58809;DHT22;44579;51.672;7.834;2023-10-31T09:46:02;12.60;93.20
58809;DHT22;44579;51.672;7.834;2023-10-31T09:48:30;12.60;93.20
58809;DHT22;44579;51.672;7.834;2023-10-31T09:50:57;12.50;93.30
58809;DHT22;44579;51.672;7.834;2023-10-31T09:53:26;12.50;93.20
58809;DHT22;44579;51.672;7.834;2023-10-31T09:55:53;12.50;93.20
58809;DHT22;44579;51.672;7.834;2023-10-31T09:58:20;12.50;93.20
58809;DHT22;44579;51.672;7.834;2023-10-31T10:00:47;12.50;93.30
58809;DHT22;44579;51.672;7.834;2023-10-31T10:03:17;12.40;93.30
58809;DHT22;44579;51.672;7.834;2023-10-31T10:05:44;12.50;93.30
58809;DHT22;44579;51.672;7.834;2023-10-31T10:08:12;12.50;93.30
58809;DHT22;44579;51.672;7.834;2023-10-31T10:10:39;12.60;93.30
58809;DHT22;44579;51.672;7.834;2023-10-31T10:13:05;12.70;93.30
58809;DHT22;44579;51.672;7.834;2023-10-31T10:15:45;12.70;93.20
58809;DHT22;44579;51.672;7.834;2023-10-31T10:18:23;12.80;93.30
58809;DHT22;44579;51.672;7.834;2023-10-31T10:20:54;12.80;93.30
58809;DHT22;44579;51.672;7.834;2023-10-31T10:23:22;12.90;93.40
58809;DHT22;44579;51.672;7.834;2023-10-31T10:25:49;12.90;93.50
58809;DHT22;44579;51.672;7.834;2023-10-31T10:28:16;12.90;93.50
58809;DHT22;44579;51.672;7.834;2023-10-31T10:30:48;12.90;93.50
58809;DHT22;44579;51.672;7.834;2023-10-31T10:33:15;12.90;93.50
58809;DHT22;44579;51.672;7.834;2023-10-31T10:35:43;12.80;93.40
58809;DHT22;44579;51.672;7.834;2023-10-31T10:38:11;12.90;93.40
58809;DHT22;44579;51.672;7.834;2023-10-31T10:40:40;12.80;93.40
58809;DHT22;44579;51.672;7.834;2023-10-31T10:43:10;12.90;93.40
58809;DHT22;44579;51.672;7.834;2023-10-31T10:45:38;12.80;93.40
58809;DHT22;44579;51.672;7.834;2023-10-31T10:48:12;12.80;93.40
58809;DHT22;44579;51.672;7.834;2023-10-31T10:50:42;12.80;93.50
58809;DHT22;44579;51.672;7.834;2023-10-31T10:53:24;12.90;93.50
58809;DHT22;44579;51.672;7.834;2023-10-31T10:56:05;12.90;93.50
58809;DHT22;44579;51.672;7.834;2023-10-31T10:58:51;12.90;93.50
58809;DHT22;44579;51.672;7.834;2023-10-31T11:01:21;13.00;93.50
58809;DHT22;44579;51.672;7.834;2023-10-31T11:03:49;13.00;93.50
58809;DHT22;44579;51.672;7.834;2023-10-31T11:06:16;13.00;93.50
58809;DHT22;44579;51.672;7.834;2023-10-31T11:08:45;12.90;93.50
58809;DHT22;44579;51.672;7.834;2023-10-31T11:11:13;12.90;93.50
58809;DHT22;44579;51.672;7.834;2023-10-31T11:13:43;12.90;93.50
58809;DHT22;44579;51.672;7.834;2023-10-31T11:16:16;12.90;93.50
58809;DHT22;44579;51.672;7.834;2023-10-31T11:18:51;12.90;93.50
58809;DHT22;44579;51.672;7.834;2023-10-31T11:21:18;12.90;93.50
58809;DHT22;44579;51.672;7.834;2023-10-31T11:23:45;12.80;93.50
58809;DHT22;44579;51.672;7.834;2023-10-31T11:26:12;12.90;93.50
58809;DHT22;44579;51.672;7.834;2023-10-31T11:28:39;12.90;93.50
58809;DHT22;44579;51.672;7.834;2023-10-31T11:31:07;12.90;93.40
58809;DHT22;44579;51.672;7.834;2023-10-31T11:33:35;13.00;93.40
58809;DHT22;44579;51.672;7.834;2023-10-31T11:36:05;13.00;93.40
58809;DHT22;44579;51.672;7.834;2023-10-31T11:38:35;13.00;93.40
58809;DHT22;44579;51.672;7.834;2023-10-31T11:41:02;13.00;93.30
58809;DHT22;44579;51.672;7.834;2023-10-31T11:44:03;13.00;93.30
58809;DHT22;44579;51.672;7.834;2023-10-31T11:46:23;13.00;93.30
58809;DHT22;44579;51.672;7.834;2023-10-31T11:48:55;13.00;93.30
58809;DHT22;44579;51.672;7.834;2023-10-31T11:51:23;13.00;93.30
58809;DHT22;44579;51.672;7.834;2023-10-31T11:53:50;13.00;93.40
58809;DHT22;44579;51.672;7.834;2023-10-31T11:56:19;13.00;93.40
58809;DHT22;44579;51.672;7.834;2023-10-31T11:58:58;13.00;93.40
58809;DHT22;44579;51.672;7.834;2023-10-31T12:01:26;13.00;93.40
58809;DHT22;44579;51.672;7.834;2023-10-31T12:03:53;13.10;93.40
58809;DHT22;44579;51.672;7.834;2023-10-31T12:06:20;13.20;93.40
58809;DHT22;44579;51.672;7.834;2023-10-31T12:08:48;13.20;93.40
58809;DHT22;44579;51.672;7.834;2023-10-31T12:11:16;13.20;93.40
58809;DHT22;44579;51.672;7.834;2023-10-31T12:13:55;13.20;93.40
58809;DHT22;44579;51.672;7.834;2023-10-31T12:16:26;13.10;93.40
58809;DHT22;44579;51.672;7.834;2023-10-31T12:18:57;13.10;93.40
58809;DHT22;44579;51.672;7.834;2023-10-31T12:21:41;13.00;93.40
58809;DHT22;44579;51.672;7.834;2023-10-31T12:24:10;13.00;93.50
58809;DHT22;44579;51.672;7.834;2023-10-31T12:26:37;13.00;93.50
58809;DHT22;44579;51.672;7.834;2023-10-31T12:29:11;13.00;93.50
58809;DHT22;44579;51.672;7.834;2023-10-31T12:31:39;13.00;93.50
58809;DHT22;44579;51.672;7.834;2023-10-31T12:34:07;13.00;93.60
58809;DHT22;44579;51.672;7.834;2023-10-31T12:36:37;13.10;93.60
58809;DHT22;44579;51.672;7.834;2023-10-31T12:39:05;13.10;93.60
58809;DHT22;44579;51.672;7.834;2023-10-31T12:41:33;13.10;93.60
58809;DHT22;44579;51.672;7.834;2023-10-31T12:44:01;13.10;93.60
58809;DHT22;44579;51.672;7.834;2023-10-31T12:46:28;13.10;93.60
58809;DHT22;44579;51.672;7.834;2023-10-31T12:49:03;13.20;93.60
58809;DHT22;44579;51.672;7.834;2023-10-31T12:51:33;13.20;93.60
58809;DHT22;44579;51.672;7.834;2023-10-31T12:54:00;13.20;93.60
58809;DHT22;44579;51.672;7.834;2023-10-31T12:59:07;13.20;93.50
58809;DHT22;44579;51.672;7.834;2023-10-31T13:01:35;13.20;93.50
58809;DHT22;44579;51.672;7.834;2023-10-31T13:04:06;13.20;93.50
58809;DHT22;44579;51.672;7.834;2023-10-31T13:06:33;13.20;93.50
58809;DHT22;44579;51.672;7.834;2023-10-31T13:09:00;13.20;93.40
58809;DHT22;44579;51.672;7.834;2023-10-31T13:11:31;13.10;93.50
58809;DHT22;44579;51.672;7.834;2023-10-31T13:13:57;13.00;93.40
58809;DHT22;44579;51.672;7.834;2023-10-31T13:16:28;13.00;93.40
58809;DHT22;44579;51.672;7.834;2023-10-31T13:18:55;12.90;93.40
58809;DHT22;44579;51.672;7.834;2023-10-31T13:21:22;12.90;93.40
58809;DHT22;44579;51.672;7.834;2023-10-31T13:23:49;12.90;93.40
58809;DHT22;44579;51.672;7.834;2023-10-31T13:26:16;12.90;93.30
58809;DHT22;44579;51.672;7.834;2023-10-31T13:28:46;12.90;93.20
58809;DHT22;44579;51.672;7.834;2023-10-31T13:31:13;12.90;93.20
58809;DHT22;44579;51.672;7.834;2023-10-31T13:33:41;12.90;93.20
58809;DHT22;44579;51.672;7.834;2023-10-31T13:36:08;13.00;93.20
58809;DHT22;44579;51.672;7.834;2023-10-31T13:38:38;13.00;93.10
58809;DHT22;44579;51.672;7.834;2023-10-31T13:41:05;13.00;93.10
58809;DHT22;44579;51.672;7.834;2023-10-31T13:43:32;13.10;93.00
58809;DHT22;44579;51.672;7.834;2023-10-31T13:46:02;13.10;93.00
58809;DHT22;44579;51.672;7.834;2023-10-31T13:48:29;13.10;93.00
58809;DHT22;44579;51.672;7.834;2023-10-31T13:50:56;13.10;93.30
58809;DHT22;44579;51.672;7.834;2023-10-31T13:53:23;13.20;92.90
58809;DHT22;44579;51.672;7.834;2023-10-31T13:55:50;13.20;92.90
58809;DHT22;44579;51.672;7.834;2023-10-31T13:58:17;13.20;92.90
58809;DHT22;44579;51.672;7.834;2023-10-31T14:00:45;13.10;92.90
58809;DHT22;44579;51.672;7.834;2023-10-31T14:03:12;13.10;92.90
58809;DHT22;44579;51.672;7.834;2023-10-31T14:05:39;13.10;92.90
58809;DHT22;44579;51.672;7.834;2023-10-31T14:08:06;13.10;92.90
58809;DHT22;44579;51.672;7.834;2023-10-31T14:10:36;13.10;93.00
58809;DHT22;44579;51.672;7.834;2023-10-31T14:13:03;13.20;93.00
58809;DHT22;44579;51.672;7.834;2023-10-31T14:15:31;13.20;93.00
58809;DHT22;44579;51.672;7.834;2023-10-31T14:18:02;13.10;92.90
58809;DHT22;44579;51.672;7.834;2023-10-31T14:20:30;13.20;92.90
58809;DHT22;44579;51.672;7.834;2023-10-31T14:22:58;13.10;92.80
58809;DHT22;44579;51.672;7.834;2023-10-31T14:25:26;13.10;92.80
58809;DHT22;44579;51.672;7.834;2023-10-31T14:27:53;13.10;92.90
58809;DHT22;44579;51.672;7.834;2023-10-31T14:30:20;13.20;92.90
58809;DHT22;44579;51.672;7.834;2023-10-31T14:32:47;13.10;92.90
58809;DHT22;44579;51.672;7.834;2023-10-31T14:35:14;13.10;92.80
58809;DHT22;44579;51.672;7.834;2023-10-31T14:37:42;13.10;92.80
58809;DHT22;44579;51.672;7.834;2023-10-31T14:40:10;13.10;92.80
58809;DHT22;44579;51.672;7.834;2023-10-31T14:42:37;13.10;92.80
58809;DHT22;44579;51.672;7.834;2023-10-31T14:45:04;13.10;92.80
58809;DHT22;44579;51.672;7.834;2023-10-31T14:47:31;13.10;92.70
58809;DHT22;44579;51.672;7.834;2023-10-31T14:49:58;13.10;92.70
58809;DHT22;44579;51.672;7.834;2023-10-31T14:52:25;13.10;92.70
58809;DHT22;44579;51.672;7.834;2023-10-31T14:54:52;13.00;92.70
58809;DHT22;44579;51.672;7.834;2023-10-31T14:57:19;13.00;92.70
58809;DHT22;44579;51.672;7.834;2023-10-31T14:59:47;13.00;92.70
58809;DHT22;44579;51.672;7.834;2023-10-31T15:02:15;13.00;92.70
58809;DHT22;44579;51.672;7.834;2023-10-31T15:04:42;13.00;92.70
58809;DHT22;44579;51.672;7.834;2023-10-31T15:07:09;13.00;92.60
58809;DHT22;44579;51.672;7.834;2023-10-31T15:09:35;12.90;92.60
58809;DHT22;44579;51.672;7.834;2023-10-31T15:12:03;12.90;92.60
58809;DHT22;44579;51.672;7.834;2023-10-31T15:14:29;12.90;92.60
58809;DHT22;44579;51.672;7.834;2023-10-31T15:16:57;12.90;92.60
58809;DHT22;44579;51.672;7.834;2023-10-31T15:19:23;12.80;92.60
58809;DHT22;44579;51.672;7.834;2023-10-31T15:21:50;12.90;92.60
58809;DHT22;44579;51.672;7.834;2023-10-31T15:24:17;12.80;92.50
58809;DHT22;44579;51.672;7.834;2023-10-31T15:26:44;12.80;92.50
58809;DHT22;44579;51.672;7.834;2023-10-31T15:29:12;12.70;92.60
58809;DHT22;44579;51.672;7.834;2023-10-31T15:31:42;12.70;92.60
58809;DHT22;44579;51.672;7.834;2023-10-31T15:34:09;12.60;92.60
58809;DHT22;44579;51.672;7.834;2023-10-31T15:36:36;12.60;92.50
58809;DHT22;44579;51.672;7.834;2023-10-31T15:39:03;12.60;92.50